Aérodrome :
LOGIN :

S'inscrire | Disclaimer

   EN    FR    IT 

 










Légende :    VFR   VFR Marginal   IFR   IFR Intensif   IFR Très Intensif
Visi : 
Plafond : 
>= 8 km
>= 3000ft
5 à 8 km
1000 à 3000 ft
1500m à 5 km
500 à 1000 ft
800 à 1500m
200 à 500 ft
< 800m
< 200 ft
Symboles :   Orages  Brouillard  Fortes neiges  Fortes précipitations  Vent > 20 kt
SIGMETs :   Divers  Orages  Givrage  Turbulence  Onde Orograph.  Cendres Volcan.






- Altitude de l'aérodrome : 121 ft
- Code IATA : HUY


EGNJ - Humberside

DERNIER METAR :
  • 271050Z 23004KT 9999 FEW030 SCT034 06/03 Q1020

METARs EXPIRÉS :
  • 271020Z VRB02KT 9999 FEW030 SCT034 06/04 Q1021
  • 270950Z 00000KT 9999 FEW030 04/03 Q1020
  • 270920Z 20003KT 9999 FEW030 03/02 Q1020
  • 270850Z 00000KT 9999 SCT032 01/00 Q1020
  • 270820Z 00000KT 9999 SCT032 01/00 Q1020
  • 270750Z AUTO 27001KT 9999 FEW035/// 02/01 Q1020

TAF TAF EGNJ
Valide du 27 à 09h jusqu'au 27 à 18h UTC


270804Z 2709/2718 23002KT 9999 SCT040
PROB30
TEMPO 2709/2712 3000 BR
PROB30
TEMPO 2716/2718 0200 FG VV///
ATIS : +44 1652 682 020



MET'MAP, la Météo Aéronautique d'un coup d'oeil ! - Copyright ORBIFLY Décembre 2007 - Disclaimer

ORBIFLY MET'MAP TEAM :

Programmation & Développement : Alexandra Zaïnal
Sur une idée originale de : Baudouin d'Aumeries
Assistance à la programmation : Marc-Olivier Méhu
Soutien technique & logistique : Manuel Goepfert

Contact : metmap@orbifly.com




SOURCES & CREDITS :

   NOAA